sensor_id;sensor_type;location;lat;lon;timestamp;pressure;altitude;pressure_sealevel;temperature;humidity
44734;BME280;30462;52.446;-1.930;2023-02-10T00:00:18;102197.1055;;;;
44734;BME280;30462;52.446;-1.930;2023-02-10T00:01:18;102198.1875;;;;
44734;BME280;30462;52.446;-1.930;2023-02-10T00:02:18;102201.1211;;;;
44734;BME280;30462;52.446;-1.930;2023-02-10T00:03:18;102203.2266;;;;
44734;BME280;30462;52.446;-1.930;2023-02-10T00:04:18;102203.2969;;;;
44734;BME280;30462;52.446;-1.930;2023-02-10T00:05:18;102203.7109;;;;
44734;BME280;30462;52.446;-1.930;2023-02-10T00:06:19;102204.8633;;;;
44734;BME280;30462;52.446;-1.930;2023-02-10T00:07:18;102200.957;;;;
44734;BME280;30462;52.446;-1.930;2023-02-10T00:08:18;102201.8594;;;;
44734;BME280;30462;52.446;-1.930;2023-02-10T00:09:18;102198.6211;;;;
44734;BME280;30462;52.446;-1.930;2023-02-10T00:10:18;102201.9805;;;;
44734;BME280;30462;52.446;-1.930;2023-02-10T00:11:18;102201.8008;;;;
44734;BME280;30462;52.446;-1.930;2023-02-10T00:12:18;102202.7695;;;;
44734;BME280;30462;52.446;-1.930;2023-02-10T00:13:18;102207.4297;;;;
44734;BME280;30462;52.446;-1.930;2023-02-10T00:14:18;102207.4766;;;;
44734;BME280;30462;52.446;-1.930;2023-02-10T00:15:18;102207.1563;;;;
44734;BME280;30462;52.446;-1.930;2023-02-10T00:16:18;102209.0625;;;;
44734;BME280;30462;52.446;-1.930;2023-02-10T00:17:18;102204.625;;;;
44734;BME280;30462;52.446;-1.930;2023-02-10T00:18:18;102209.3984;;;;
44734;BME280;30462;52.446;-1.930;2023-02-10T00:19:18;102208.4766;;;;
44734;BME280;30462;52.446;-1.930;2023-02-10T00:20:18;102207.1641;;;;
44734;BME280;30462;52.446;-1.930;2023-02-10T00:21:18;102205.8867;;;;
44734;BME280;30462;52.446;-1.930;2023-02-10T00:22:18;102203.9609;;;;
44734;BME280;30462;52.446;-1.930;2023-02-10T00:23:18;102202.1563;;;;
44734;BME280;30462;52.446;-1.930;2023-02-10T00:24:18;102198.4922;;;;
44734;BME280;30462;52.446;-1.930;2023-02-10T00:25:18;102198.6406;;;;
44734;BME280;30462;52.446;-1.930;2023-02-10T00:26:18;102199.5156;;;;
44734;BME280;30462;52.446;-1.930;2023-02-10T00:27:18;102199.3047;;;;
44734;BME280;30462;52.446;-1.930;2023-02-10T00:28:18;102202.8672;;;;
44734;BME280;30462;52.446;-1.930;2023-02-10T00:29:18;102195.4609;;;;
44734;BME280;30462;52.446;-1.930;2023-02-10T00:30:18;102195.2148;;;;
44734;BME280;30462;52.446;-1.930;2023-02-10T00:31:18;102193.5547;;;;
44734;BME280;30462;52.446;-1.930;2023-02-10T00:32:18;102187.332;;;;
44734;BME280;30462;52.446;-1.930;2023-02-10T00:33:18;102184.0781;;;;
44734;BME280;30462;52.446;-1.930;2023-02-10T00:34:18;102186.8711;;;;
44734;BME280;30462;52.446;-1.930;2023-02-10T00:35:18;102184.1875;;;;
44734;BME280;30462;52.446;-1.930;2023-02-10T00:36:18;102186.1328;;;;
44734;BME280;30462;52.446;-1.930;2023-02-10T00:37:18;102188.3281;;;;
44734;BME280;30462;52.446;-1.930;2023-02-10T00:38:18;102186.418;;;;
44734;BME280;30462;52.446;-1.930;2023-02-10T00:39:18;102191.2383;;;;
44734;BME280;30462;52.446;-1.930;2023-02-10T00:40:18;102192.125;;;;
44734;BME280;30462;52.446;-1.930;2023-02-10T00:41:18;102192.7383;;;;
44734;BME280;30462;52.446;-1.930;2023-02-10T00:42:17;102196.5156;;;;
44734;BME280;30462;52.446;-1.930;2023-02-10T00:43:18;102192.8984;;;;
44734;BME280;30462;52.446;-1.930;2023-02-10T00:44:18;102193.2773;;;;
44734;BME280;30462;52.446;-1.930;2023-02-10T00:45:18;102194.4688;;;;
44734;BME280;30462;52.446;-1.930;2023-02-10T00:46:19;102193.3828;;;;
44734;BME280;30462;52.446;-1.930;2023-02-10T00:47:18;102199.6055;;;;
44734;BME280;30462;52.446;-1.930;2023-02-10T00:48:18;102201.0391;;;;
44734;BME280;30462;52.446;-1.930;2023-02-10T00:49:18;102202.207;;;;
44734;BME280;30462;52.446;-1.930;2023-02-10T00:50:18;102201.4805;;;;
44734;BME280;30462;52.446;-1.930;2023-02-10T00:51:18;102198.8906;;;;
44734;BME280;30462;52.446;-1.930;2023-02-10T00:52:18;102201.5898;;;;
44734;BME280;30462;52.446;-1.930;2023-02-10T00:53:18;102204.3984;;;;
44734;BME280;30462;52.446;-1.930;2023-02-10T00:54:18;102202.8867;;;;
44734;BME280;30462;52.446;-1.930;2023-02-10T00:55:18;102197.1797;;;;
44734;BME280;30462;52.446;-1.930;2023-02-10T00:56:18;102199.2227;;;;
44734;BME280;30462;52.446;-1.930;2023-02-10T00:57:18;102198.0664;;;;
44734;BME280;30462;52.446;-1.930;2023-02-10T00:58:18;102197.5508;;;;
44734;BME280;30462;52.446;-1.930;2023-02-10T00:59:17;102198.3008;;;;
44734;BME280;30462;52.446;-1.930;2023-02-10T01:00:18;102197.3125;;;;
44734;BME280;30462;52.446;-1.930;2023-02-10T01:01:18;102199.4609;;;;
44734;BME280;30462;52.446;-1.930;2023-02-10T01:02:17;102197.4844;;;;
44734;BME280;30462;52.446;-1.930;2023-02-10T01:03:18;102199.4258;;;;
44734;BME280;30462;52.446;-1.930;2023-02-10T01:04:18;102200.1484;;;;
44734;BME280;30462;52.446;-1.930;2023-02-10T01:05:18;102201.0703;;;;
44734;BME280;30462;52.446;-1.930;2023-02-10T01:06:17;102198.75;;;;
44734;BME280;30462;52.446;-1.930;2023-02-10T01:07:18;102205.3789;;;;
44734;BME280;30462;52.446;-1.930;2023-02-10T01:08:18;102203.7695;;;;
44734;BME280;30462;52.446;-1.930;2023-02-10T01:09:19;102203.207;;;;
44734;BME280;30462;52.446;-1.930;2023-02-10T01:10:18;102202.9727;;;;
44734;BME280;30462;52.446;-1.930;2023-02-10T01:11:18;102203.2969;;;;
44734;BME280;30462;52.446;-1.930;2023-02-10T01:12:18;102200.8203;;;;
44734;BME280;30462;52.446;-1.930;2023-02-10T01:13:17;102198.5859;;;;
44734;BME280;30462;52.446;-1.930;2023-02-10T01:14:18;102193.4063;;;;
44734;BME280;30462;52.446;-1.930;2023-02-10T01:15:18;102195.6953;;;;
44734;BME280;30462;52.446;-1.930;2023-02-10T01:16:18;102194.6172;;;;
44734;BME280;30462;52.446;-1.930;2023-02-10T01:17:18;102195.1953;;;;
44734;BME280;30462;52.446;-1.930;2023-02-10T01:18:17;102193.4922;;;;
44734;BME280;30462;52.446;-1.930;2023-02-10T01:19:18;102190.125;;;;
44734;BME280;30462;52.446;-1.930;2023-02-10T01:20:18;102196.4609;;;;
44734;BME280;30462;52.446;-1.930;2023-02-10T01:21:18;102195.5117;;;;
44734;BME280;30462;52.446;-1.930;2023-02-10T01:22:18;102195.8164;;;;
44734;BME280;30462;52.446;-1.930;2023-02-10T01:23:18;102195.5898;;;;
44734;BME280;30462;52.446;-1.930;2023-02-10T01:24:18;102197.0078;;;;
44734;BME280;30462;52.446;-1.930;2023-02-10T01:25:19;102200.6484;;;;
44734;BME280;30462;52.446;-1.930;2023-02-10T01:26:18;102197.9805;;;;
44734;BME280;30462;52.446;-1.930;2023-02-10T01:27:18;102199.2539;;;;
44734;BME280;30462;52.446;-1.930;2023-02-10T01:28:18;102200.8164;;;;
44734;BME280;30462;52.446;-1.930;2023-02-10T01:29:18;102202.1133;;;;
44734;BME280;30462;52.446;-1.930;2023-02-10T01:30:18;102204.1484;;;;
44734;BME280;30462;52.446;-1.930;2023-02-10T01:31:18;102202.5234;;;;
44734;BME280;30462;52.446;-1.930;2023-02-10T01:32:18;102205.7773;;;;
44734;BME280;30462;52.446;-1.930;2023-02-10T01:33:18;102206.957;;;;
44734;BME280;30462;52.446;-1.930;2023-02-10T01:34:18;102207.2031;;;;
44734;BME280;30462;52.446;-1.930;2023-02-10T01:35:18;102209.3594;;;;
44734;BME280;30462;52.446;-1.930;2023-02-10T01:36:19;102209.9883;;;;
44734;BME280;30462;52.446;-1.930;2023-02-10T01:37:18;102211.1289;;;;
44734;BME280;30462;52.446;-1.930;2023-02-10T01:38:17;102212.0508;;;;
44734;BME280;30462;52.446;-1.930;2023-02-10T01:39:18;102209.2539;;;;
44734;BME280;30462;52.446;-1.930;2023-02-10T01:40:18;102208.4141;;;;
44734;BME280;30462;52.446;-1.930;2023-02-10T01:41:19;102209.2344;;;;
44734;BME280;30462;52.446;-1.930;2023-02-10T01:42:18;102210.0195;;;;
44734;BME280;30462;52.446;-1.930;2023-02-10T01:43:18;102209.2148;;;;
44734;BME280;30462;52.446;-1.930;2023-02-10T01:45:22;102210.1641;;;;
44734;BME280;30462;52.446;-1.930;2023-02-10T01:46:18;102213.8086;;;;
44734;BME280;30462;52.446;-1.930;2023-02-10T01:47:18;102216.3867;;;;
44734;BME280;30462;52.446;-1.930;2023-02-10T01:48:18;102212.3984;;;;
44734;BME280;30462;52.446;-1.930;2023-02-10T01:49:19;102214.2617;;;;
44734;BME280;30462;52.446;-1.930;2023-02-10T01:50:19;102211.1367;;;;
44734;BME280;30462;52.446;-1.930;2023-02-10T01:51:18;102212.1641;;;;
44734;BME280;30462;52.446;-1.930;2023-02-10T01:52:20;102210.3281;;;;
44734;BME280;30462;52.446;-1.930;2023-02-10T01:53:18;102209.2344;;;;
44734;BME280;30462;52.446;-1.930;2023-02-10T01:54:18;102204.1289;;;;
44734;BME280;30462;52.446;-1.930;2023-02-10T01:55:19;102202.9727;;;;
44734;BME280;30462;52.446;-1.930;2023-02-10T01:56:18;102202.7305;;;;
44734;BME280;30462;52.446;-1.930;2023-02-10T01:57:18;102198.3633;;;;
44734;BME280;30462;52.446;-1.930;2023-02-10T01:58:18;102194.5703;;;;
44734;BME280;30462;52.446;-1.930;2023-02-10T01:59:18;102194.1484;;;;
44734;BME280;30462;52.446;-1.930;2023-02-10T02:00:18;102191.7773;;;;
44734;BME280;30462;52.446;-1.930;2023-02-10T02:01:18;102193.9648;;;;
44734;BME280;30462;52.446;-1.930;2023-02-10T02:02:18;102198.2617;;;;
44734;BME280;30462;52.446;-1.930;2023-02-10T02:03:18;102200.9297;;;;
44734;BME280;30462;52.446;-1.930;2023-02-10T02:04:18;102200.0156;;;;
44734;BME280;30462;52.446;-1.930;2023-02-10T02:05:20;102200.3867;;;;
44734;BME280;30462;52.446;-1.930;2023-02-10T02:06:18;102195.6367;;;;
44734;BME280;30462;52.446;-1.930;2023-02-10T02:07:19;102192.9453;;;;
44734;BME280;30462;52.446;-1.930;2023-02-10T02:08:19;102189.8125;;;;
44734;BME280;30462;52.446;-1.930;2023-02-10T02:09:18;102191.9961;;;;
44734;BME280;30462;52.446;-1.930;2023-02-10T02:10:18;102187.5;;;;
44734;BME280;30462;52.446;-1.930;2023-02-10T02:11:20;102189.4648;;;;
44734;BME280;30462;52.446;-1.930;2023-02-10T02:12:21;102190.4219;;;;
44734;BME280;30462;52.446;-1.930;2023-02-10T02:13:23;102193.4023;;;;
44734;BME280;30462;52.446;-1.930;2023-02-10T02:15:22;102194.2383;;;;
44734;BME280;30462;52.446;-1.930;2023-02-10T02:17:20;102193.6953;;;;
44734;BME280;30462;52.446;-1.930;2023-02-10T02:18:20;102195.1875;;;;
44734;BME280;30462;52.446;-1.930;2023-02-10T02:32:18;102189.3125;;;;
44734;BME280;30462;52.446;-1.930;2023-02-10T02:33:18;102192.6055;;;;
44734;BME280;30462;52.446;-1.930;2023-02-10T02:34:20;102192.2695;;;;
44734;BME280;30462;52.446;-1.930;2023-02-10T02:35:19;102190.6992;;;;
44734;BME280;30462;52.446;-1.930;2023-02-10T02:36:23;102189.5195;;;;
44734;BME280;30462;52.446;-1.930;2023-02-10T02:37:21;102192.8477;;;;
44734;BME280;30462;52.446;-1.930;2023-02-10T02:38:18;102187.2773;;;;
44734;BME280;30462;52.446;-1.930;2023-02-10T02:39:18;102187.0703;;;;
44734;BME280;30462;52.446;-1.930;2023-02-10T02:40:19;102188.6172;;;;
44734;BME280;30462;52.446;-1.930;2023-02-10T02:42:20;102187.6367;;;;
44734;BME280;30462;52.446;-1.930;2023-02-10T02:43:17;102184.9688;;;;
44734;BME280;30462;52.446;-1.930;2023-02-10T02:44:17;102184.543;;;;
44734;BME280;30462;52.446;-1.930;2023-02-10T02:45:20;102187.7734;;;;
44734;BME280;30462;52.446;-1.930;2023-02-10T02:46:21;102185.7305;;;;
44734;BME280;30462;52.446;-1.930;2023-02-10T02:47:21;102187.0117;;;;
44734;BME280;30462;52.446;-1.930;2023-02-10T02:49:20;102192.1406;;;;
44734;BME280;30462;52.446;-1.930;2023-02-10T02:50:22;102197.0313;;;;
44734;BME280;30462;52.446;-1.930;2023-02-10T02:51:25;102197.5508;;;;
44734;BME280;30462;52.446;-1.930;2023-02-10T02:52:20;102197.1445;;;;
44734;BME280;30462;52.446;-1.930;2023-02-10T02:53:20;102193.1367;;;;
44734;BME280;30462;52.446;-1.930;2023-02-10T02:54:22;102184.1328;;;;
44734;BME280;30462;52.446;-1.930;2023-02-10T02:55:20;102184.7148;;;;
44734;BME280;30462;52.446;-1.930;2023-02-10T02:56:20;102180.7148;;;;
44734;BME280;30462;52.446;-1.930;2023-02-10T02:57:19;102175.7109;;;;
44734;BME280;30462;52.446;-1.930;2023-02-10T02:58:30;102168.875;;;;
44734;BME280;30462;52.446;-1.930;2023-02-10T02:59:20;102169.1875;;;;
44734;BME280;30462;52.446;-1.930;2023-02-10T03:00:19;102173.6563;;;;
44734;BME280;30462;52.446;-1.930;2023-02-10T03:01:20;102173.4258;;;;
44734;BME280;30462;52.446;-1.930;2023-02-10T03:02:18;102175.8516;;;;
44734;BME280;30462;52.446;-1.930;2023-02-10T03:03:18;102177.7109;;;;
44734;BME280;30462;52.446;-1.930;2023-02-10T03:04:18;102170.6172;;;;
44734;BME280;30462;52.446;-1.930;2023-02-10T03:05:19;102168.168;;;;
44734;BME280;30462;52.446;-1.930;2023-02-10T03:06:17;102162.625;;;;
44734;BME280;30462;52.446;-1.930;2023-02-10T03:07:18;102163.5625;;;;
44734;BME280;30462;52.446;-1.930;2023-02-10T03:08:17;102160.3711;;;;
44734;BME280;30462;52.446;-1.930;2023-02-10T03:09:18;102150.8867;;;;
44734;BME280;30462;52.446;-1.930;2023-02-10T03:10:18;102148.0938;;;;
44734;BME280;30462;52.446;-1.930;2023-02-10T03:11:18;102141.9102;;;;
44734;BME280;30462;52.446;-1.930;2023-02-10T03:12:18;102137.0586;;;;
44734;BME280;30462;52.446;-1.930;2023-02-10T03:13:18;102130.9609;;;;
44734;BME280;30462;52.446;-1.930;2023-02-10T03:14:18;102128.6484;;;;
44734;BME280;30462;52.446;-1.930;2023-02-10T03:15:17;102129.8438;;;;
44734;BME280;30462;52.446;-1.930;2023-02-10T03:16:18;102125.6758;;;;
44734;BME280;30462;52.446;-1.930;2023-02-10T03:17:18;102126.2734;;;;
44734;BME280;30462;52.446;-1.930;2023-02-10T03:18:18;102129.9102;;;;
44734;BME280;30462;52.446;-1.930;2023-02-10T03:19:18;102128.8711;;;;
44734;BME280;30462;52.446;-1.930;2023-02-10T03:20:18;102128.2031;;;;
44734;BME280;30462;52.446;-1.930;2023-02-10T03:21:18;102128.8398;;;;
44734;BME280;30462;52.446;-1.930;2023-02-10T03:22:18;102126.0781;;;;
44734;BME280;30462;52.446;-1.930;2023-02-10T03:23:18;102123.8125;;;;
44734;BME280;30462;52.446;-1.930;2023-02-10T03:24:17;102120.7734;;;;
44734;BME280;30462;52.446;-1.930;2023-02-10T03:25:17;102117.2656;;;;
44734;BME280;30462;52.446;-1.930;2023-02-10T03:26:18;102116.4766;;;;
44734;BME280;30462;52.446;-1.930;2023-02-10T03:27:18;102115.2656;;;;
44734;BME280;30462;52.446;-1.930;2023-02-10T03:28:18;102117.043;;;;
44734;BME280;30462;52.446;-1.930;2023-02-10T03:29:18;102121.6992;;;;
44734;BME280;30462;52.446;-1.930;2023-02-10T03:30:18;102122.4609;;;;
44734;BME280;30462;52.446;-1.930;2023-02-10T03:31:18;102123.6484;;;;
44734;BME280;30462;52.446;-1.930;2023-02-10T03:32:18;102119.0195;;;;
44734;BME280;30462;52.446;-1.930;2023-02-10T03:33:18;102116.7891;;;;
44734;BME280;30462;52.446;-1.930;2023-02-10T03:34:18;102115.5625;;;;
44734;BME280;30462;52.446;-1.930;2023-02-10T03:35:18;102118.418;;;;
44734;BME280;30462;52.446;-1.930;2023-02-10T03:36:18;102117.5977;;;;
44734;BME280;30462;52.446;-1.930;2023-02-10T03:37:18;102114.0742;;;;
44734;BME280;30462;52.446;-1.930;2023-02-10T03:38:18;102117.7031;;;;
44734;BME280;30462;52.446;-1.930;2023-02-10T03:39:18;102122.4063;;;;
44734;BME280;30462;52.446;-1.930;2023-02-10T03:40:18;102121.8398;;;;
44734;BME280;30462;52.446;-1.930;2023-02-10T03:41:18;102119.8438;;;;
44734;BME280;30462;52.446;-1.930;2023-02-10T03:42:18;102118.1563;;;;
44734;BME280;30462;52.446;-1.930;2023-02-10T03:43:18;102120.0742;;;;
44734;BME280;30462;52.446;-1.930;2023-02-10T03:44:18;102117.8086;;;;
44734;BME280;30462;52.446;-1.930;2023-02-10T03:45:17;102117.4609;;;;
44734;BME280;30462;52.446;-1.930;2023-02-10T03:46:18;102118.4336;;;;
44734;BME280;30462;52.446;-1.930;2023-02-10T03:47:17;102115.9063;;;;
44734;BME280;30462;52.446;-1.930;2023-02-10T03:48:18;102113.4922;;;;
44734;BME280;30462;52.446;-1.930;2023-02-10T03:49:18;102113.168;;;;
44734;BME280;30462;52.446;-1.930;2023-02-10T03:50:18;102114.2969;;;;
44734;BME280;30462;52.446;-1.930;2023-02-10T03:51:18;102113.9883;;;;
44734;BME280;30462;52.446;-1.930;2023-02-10T03:52:17;102114.332;;;;
44734;BME280;30462;52.446;-1.930;2023-02-10T03:53:17;102112.5664;;;;
44734;BME280;30462;52.446;-1.930;2023-02-10T03:54:18;102104.9336;;;;
44734;BME280;30462;52.446;-1.930;2023-02-10T03:55:18;102102.4961;;;;
44734;BME280;30462;52.446;-1.930;2023-02-10T03:56:18;102101.6172;;;;
44734;BME280;30462;52.446;-1.930;2023-02-10T03:57:18;102103.6172;;;;
44734;BME280;30462;52.446;-1.930;2023-02-10T03:58:18;102106.9766;;;;
44734;BME280;30462;52.446;-1.930;2023-02-10T03:59:18;102107.7383;;;;
44734;BME280;30462;52.446;-1.930;2023-02-10T04:00:18;102109.043;;;;
44734;BME280;30462;52.446;-1.930;2023-02-10T04:01:18;102113.3164;;;;
44734;BME280;30462;52.446;-1.930;2023-02-10T04:02:18;102110.3516;;;;
44734;BME280;30462;52.446;-1.930;2023-02-10T04:03:18;102105.0742;;;;
44734;BME280;30462;52.446;-1.930;2023-02-10T04:04:18;102102.2891;;;;
44734;BME280;30462;52.446;-1.930;2023-02-10T04:05:18;102102.4844;;;;
44734;BME280;30462;52.446;-1.930;2023-02-10T04:06:18;102097.7266;;;;
44734;BME280;30462;52.446;-1.930;2023-02-10T04:07:18;102097.7266;;;;
44734;BME280;30462;52.446;-1.930;2023-02-10T04:08:18;102095.2109;;;;
44734;BME280;30462;52.446;-1.930;2023-02-10T04:09:18;102093.4648;;;;
44734;BME280;30462;52.446;-1.930;2023-02-10T04:10:18;102091.1914;;;;
44734;BME280;30462;52.446;-1.930;2023-02-10T04:11:18;102088.5;;;;
44734;BME280;30462;52.446;-1.930;2023-02-10T04:12:18;102085.3945;;;;
44734;BME280;30462;52.446;-1.930;2023-02-10T04:13:17;102086.2383;;;;
44734;BME280;30462;52.446;-1.930;2023-02-10T04:14:18;102083.7539;;;;
44734;BME280;30462;52.446;-1.930;2023-02-10T04:15:18;102080.8555;;;;
44734;BME280;30462;52.446;-1.930;2023-02-10T04:16:18;102080.3008;;;;
44734;BME280;30462;52.446;-1.930;2023-02-10T04:17:18;102076.8711;;;;
44734;BME280;30462;52.446;-1.930;2023-02-10T04:18:18;102074.5938;;;;
44734;BME280;30462;52.446;-1.930;2023-02-10T04:19:18;102075.2148;;;;
44734;BME280;30462;52.446;-1.930;2023-02-10T04:20:18;102076.9141;;;;
44734;BME280;30462;52.446;-1.930;2023-02-10T04:21:18;102076.1289;;;;
44734;BME280;30462;52.446;-1.930;2023-02-10T04:22:18;102075.2031;;;;
44734;BME280;30462;52.446;-1.930;2023-02-10T04:23:18;102077.0977;;;;
44734;BME280;30462;52.446;-1.930;2023-02-10T04:24:17;102074.3125;;;;
44734;BME280;30462;52.446;-1.930;2023-02-10T04:25:17;102076.4492;;;;
44734;BME280;30462;52.446;-1.930;2023-02-10T04:26:18;102078.3906;;;;
44734;BME280;30462;52.446;-1.930;2023-02-10T04:27:18;102080.4922;;;;
44734;BME280;30462;52.446;-1.930;2023-02-10T04:28:18;102083.207;;;;
44734;BME280;30462;52.446;-1.930;2023-02-10T04:29:18;102085.7109;;;;
44734;BME280;30462;52.446;-1.930;2023-02-10T04:30:18;102091.4766;;;;
44734;BME280;30462;52.446;-1.930;2023-02-10T04:31:18;102090.6875;;;;
44734;BME280;30462;52.446;-1.930;2023-02-10T04:32:18;102091.125;;;;
44734;BME280;30462;52.446;-1.930;2023-02-10T04:33:18;102088.957;;;;
44734;BME280;30462;52.446;-1.930;2023-02-10T04:34:18;102090.2031;;;;
44734;BME280;30462;52.446;-1.930;2023-02-10T04:35:18;102089.3242;;;;
44734;BME280;30462;52.446;-1.930;2023-02-10T04:36:18;102086.9922;;;;
44734;BME280;30462;52.446;-1.930;2023-02-10T04:37:18;102085.4805;;;;
44734;BME280;30462;52.446;-1.930;2023-02-10T04:38:18;102090.5039;;;;
44734;BME280;30462;52.446;-1.930;2023-02-10T04:39:18;102091.082;;;;
44734;BME280;30462;52.446;-1.930;2023-02-10T04:40:18;102090.8438;;;;
44734;BME280;30462;52.446;-1.930;2023-02-10T04:41:18;102089.6758;;;;
44734;BME280;30462;52.446;-1.930;2023-02-10T04:42:18;102083.5469;;;;
44734;BME280;30462;52.446;-1.930;2023-02-10T04:43:18;102083.6953;;;;
44734;BME280;30462;52.446;-1.930;2023-02-10T04:44:18;102077.5781;;;;
44734;BME280;30462;52.446;-1.930;2023-02-10T04:45:18;102078.4453;;;;
44734;BME280;30462;52.446;-1.930;2023-02-10T04:46:18;102078.918;;;;
44734;BME280;30462;52.446;-1.930;2023-02-10T04:47:18;102080.8906;;;;
44734;BME280;30462;52.446;-1.930;2023-02-10T04:48:18;102078.7813;;;;
44734;BME280;30462;52.446;-1.930;2023-02-10T04:49:18;102076.4922;;;;
44734;BME280;30462;52.446;-1.930;2023-02-10T04:50:18;102074.5117;;;;
44734;BME280;30462;52.446;-1.930;2023-02-10T04:51:18;102074.6484;;;;
44734;BME280;30462;52.446;-1.930;2023-02-10T04:52:18;102077.8008;;;;
44734;BME280;30462;52.446;-1.930;2023-02-10T04:53:18;102079.5547;;;;
44734;BME280;30462;52.446;-1.930;2023-02-10T04:54:18;102078.0859;;;;
44734;BME280;30462;52.446;-1.930;2023-02-10T04:55:18;102080.707;;;;
44734;BME280;30462;52.446;-1.930;2023-02-10T04:56:18;102082.9727;;;;
44734;BME280;30462;52.446;-1.930;2023-02-10T04:57:18;102078.4141;;;;
44734;BME280;30462;52.446;-1.930;2023-02-10T04:58:18;102075.2617;;;;
44734;BME280;30462;52.446;-1.930;2023-02-10T04:59:18;102078.3633;;;;
44734;BME280;30462;52.446;-1.930;2023-02-10T05:00:18;102080.2109;;;;
44734;BME280;30462;52.446;-1.930;2023-02-10T05:01:18;102083.9531;;;;
44734;BME280;30462;52.446;-1.930;2023-02-10T05:02:18;102083.6875;;;;
44734;BME280;30462;52.446;-1.930;2023-02-10T05:03:18;102080.3828;;;;
44734;BME280;30462;52.446;-1.930;2023-02-10T05:04:18;102080.457;;;;
44734;BME280;30462;52.446;-1.930;2023-02-10T05:05:18;102079.3672;;;;
44734;BME280;30462;52.446;-1.930;2023-02-10T05:06:18;102086.2617;;;;
44734;BME280;30462;52.446;-1.930;2023-02-10T05:07:18;102088.5234;;;;
44734;BME280;30462;52.446;-1.930;2023-02-10T05:08:18;102089.8789;;;;
44734;BME280;30462;52.446;-1.930;2023-02-10T05:09:17;102098.8711;;;;
44734;BME280;30462;52.446;-1.930;2023-02-10T05:10:18;102100.5703;;;;
44734;BME280;30462;52.446;-1.930;2023-02-10T05:11:18;102100.9258;;;;
44734;BME280;30462;52.446;-1.930;2023-02-10T05:12:18;102100.7891;;;;
44734;BME280;30462;52.446;-1.930;2023-02-10T05:13:18;102101.0977;;;;
44734;BME280;30462;52.446;-1.930;2023-02-10T05:14:18;102102.0078;;;;
44734;BME280;30462;52.446;-1.930;2023-02-10T05:15:18;102104.2461;;;;
44734;BME280;30462;52.446;-1.930;2023-02-10T05:16:18;102101.3672;;;;
44734;BME280;30462;52.446;-1.930;2023-02-10T05:17:18;102103.043;;;;
44734;BME280;30462;52.446;-1.930;2023-02-10T05:18:18;102101.4844;;;;
44734;BME280;30462;52.446;-1.930;2023-02-10T05:19:18;102100.2578;;;;
44734;BME280;30462;52.446;-1.930;2023-02-10T05:20:18;102099.0469;;;;
44734;BME280;30462;52.446;-1.930;2023-02-10T05:21:17;102100.2969;;;;
44734;BME280;30462;52.446;-1.930;2023-02-10T05:22:18;102104.3164;;;;
44734;BME280;30462;52.446;-1.930;2023-02-10T05:23:18;102104.6875;;;;
44734;BME280;30462;52.446;-1.930;2023-02-10T05:24:18;102101.1172;;;;
44734;BME280;30462;52.446;-1.930;2023-02-10T05:25:18;102096.957;;;;
44734;BME280;30462;52.446;-1.930;2023-02-10T05:26:18;102090.8398;;;;
44734;BME280;30462;52.446;-1.930;2023-02-10T05:27:20;102084.9141;;;;
44734;BME280;30462;52.446;-1.930;2023-02-10T05:28:18;102085.0781;;;;
44734;BME280;30462;52.446;-1.930;2023-02-10T05:29:18;102080.2969;;;;
44734;BME280;30462;52.446;-1.930;2023-02-10T05:30:17;102074.6094;;;;
44734;BME280;30462;52.446;-1.930;2023-02-10T05:31:18;102071.957;;;;
44734;BME280;30462;52.446;-1.930;2023-02-10T05:32:18;102067.2148;;;;
44734;BME280;30462;52.446;-1.930;2023-02-10T05:33:18;102070.582;;;;
44734;BME280;30462;52.446;-1.930;2023-02-10T05:34:18;102067.7891;;;;
44734;BME280;30462;52.446;-1.930;2023-02-10T05:35:17;102069.2461;;;;
44734;BME280;30462;52.446;-1.930;2023-02-10T05:36:18;102075.7305;;;;
44734;BME280;30462;52.446;-1.930;2023-02-10T05:37:18;102072.4063;;;;
44734;BME280;30462;52.446;-1.930;2023-02-10T05:38:17;102077.9258;;;;
44734;BME280;30462;52.446;-1.930;2023-02-10T05:39:18;102078.25;;;;
44734;BME280;30462;52.446;-1.930;2023-02-10T05:40:18;102079.1602;;;;
44734;BME280;30462;52.446;-1.930;2023-02-10T05:41:17;102076.6563;;;;
44734;BME280;30462;52.446;-1.930;2023-02-10T05:42:18;102077.418;;;;
44734;BME280;30462;52.446;-1.930;2023-02-10T05:43:18;102080.0938;;;;
44734;BME280;30462;52.446;-1.930;2023-02-10T05:44:18;102080.8438;;;;
44734;BME280;30462;52.446;-1.930;2023-02-10T05:45:18;102080.2344;;;;
44734;BME280;30462;52.446;-1.930;2023-02-10T05:46:17;102082.3008;;;;
44734;BME280;30462;52.446;-1.930;2023-02-10T05:47:18;102077.8906;;;;
44734;BME280;30462;52.446;-1.930;2023-02-10T05:48:18;102079.207;;;;
44734;BME280;30462;52.446;-1.930;2023-02-10T05:49:18;102082.7383;;;;
44734;BME280;30462;52.446;-1.930;2023-02-10T05:50:18;102078.0195;;;;
44734;BME280;30462;52.446;-1.930;2023-02-10T05:51:18;102078.3828;;;;
44734;BME280;30462;52.446;-1.930;2023-02-10T05:52:18;102082.1367;;;;
44734;BME280;30462;52.446;-1.930;2023-02-10T05:53:18;102081.6992;;;;
44734;BME280;30462;52.446;-1.930;2023-02-10T05:54:18;102081.7656;;;;
44734;BME280;30462;52.446;-1.930;2023-02-10T05:55:18;102080.7734;;;;
44734;BME280;30462;52.446;-1.930;2023-02-10T05:56:18;102079.8828;;;;
44734;BME280;30462;52.446;-1.930;2023-02-10T05:57:18;102077.7461;;;;
44734;BME280;30462;52.446;-1.930;2023-02-10T05:58:18;102077.9531;;;;
44734;BME280;30462;52.446;-1.930;2023-02-10T05:59:18;102076.0898;;;;
44734;BME280;30462;52.446;-1.930;2023-02-10T06:00:18;102078.2383;;;;
44734;BME280;30462;52.446;-1.930;2023-02-10T06:01:18;102076.3203;;;;
44734;BME280;30462;52.446;-1.930;2023-02-10T06:02:18;102074.1797;;;;
44734;BME280;30462;52.446;-1.930;2023-02-10T06:03:18;102078.1641;;;;